createdAt,value
2018-02-12T00:02:35.146Z,74.69
2018-02-12T00:17:38.080Z,75.07
2018-02-12T00:32:35.449Z,74.96
2018-02-12T00:47:34.444Z,75.16
2018-02-12T01:02:36.964Z,74.75
2018-02-12T01:17:34.882Z,74.74
2018-02-12T01:32:34.842Z,74.28
2018-02-12T01:47:41.083Z,73.70
2018-02-12T02:02:38.718Z,73.35
2018-02-12T02:17:37.447Z,73.39
2018-02-12T02:32:39.979Z,73.12
2018-02-12T02:47:38.872Z,73.08
2018-02-12T03:02:34.392Z,72.94
2018-02-12T03:17:35.335Z,72.80
2018-02-12T03:32:35.191Z,71.85
2018-02-12T03:47:36.026Z,71.46
2018-02-12T04:02:37.130Z,71.31
2018-02-12T04:17:34.589Z,71.08
2018-02-12T04:32:34.547Z,71.06
2018-02-12T04:47:35.401Z,71.04
2018-02-12T05:02:37.335Z,71.07
2018-02-12T05:17:34.814Z,71.14
2018-02-12T05:32:36.719Z,70.87
2018-02-12T05:47:34.690Z,70.19
2018-02-12T06:02:34.544Z,69.66
2018-02-12T06:17:34.484Z,69.13
2018-02-12T06:32:36.984Z,68.78
2018-02-12T06:47:36.851Z,68.61
2018-02-12T07:02:34.870Z,67.51
2018-02-12T07:17:40.310Z,66.98
2018-02-12T07:32:36.662Z,67.17
2018-02-12T07:47:37.768Z,66.42
2018-02-12T08:02:35.110Z,65.78
2018-02-12T08:17:36.528Z,65.48
2018-02-12T08:32:34.539Z,65.34
2018-02-12T08:47:38.900Z,64.94
2018-02-12T10:32:34.426Z,63.93
2018-02-12T11:02:34.286Z,60.76
2018-02-12T11:32:37.134Z,65.01
2018-02-12T12:17:34.501Z,67.38
2018-02-12T12:32:34.414Z,67.89
2018-02-12T13:02:35.190Z,68.99
2018-02-12T13:17:36.896Z,69.50
2018-02-12T13:32:34.639Z,69.38
2018-02-12T13:47:36.524Z,68.84
2018-02-12T15:02:34.730Z,70.45
2018-02-12T15:17:34.607Z,71.09
2018-02-12T15:32:35.094Z,71.73
2018-02-12T15:47:35.046Z,71.94
2018-02-12T16:02:36.970Z,72.13
2018-02-12T16:17:34.957Z,72.08
2018-02-12T16:32:36.817Z,72.53
2018-02-12T16:47:37.282Z,72.16
2018-02-12T17:02:35.214Z,71.77
2018-02-12T17:17:34.639Z,71.66
2018-02-12T17:32:38.660Z,71.40
2018-02-12T19:17:38.190Z,72.46
2018-02-12T19:32:41.012Z,72.55
2018-02-12T19:47:42.434Z,72.37
2018-02-12T20:02:51.481Z,72.43
2018-02-12T20:47:35.770Z,74.88
2018-02-12T21:02:35.554Z,75.38
2018-02-12T21:17:36.502Z,75.04
2018-02-12T21:47:37.325Z,74.77
2018-02-12T22:02:36.970Z,74.66
2018-02-12T22:17:38.439Z,74.40
2018-02-12T22:32:35.803Z,74.37
2018-02-12T22:47:37.526Z,74.55
2018-02-12T23:02:37.063Z,74.60
2018-02-12T23:17:34.958Z,74.32
2018-02-12T23:32:37.876Z,74.49
2018-02-12T23:47:36.076Z,74.72
